Ottawa, Ontario

3:17 AM EDT on August 05, 2015 (GMT -0400)
Ottawa-Macdonald-Cartier International | | Change Station
CLOSE
Current Station
Airport
Location: Ottawa International,
Elevation: 374 ft
Nearby Weather Stations

Elev 374 ft 45.32 °N, 75.67 °W | Updated 17 minutes ago

Partly Cloudy
Partly Cloudy
57 °F
Feels Like 57 °F
N
5
Wind Variable Wind from SSW

Today is forecast to be nearly the same temperature as yesterday.

Today
High -- | Low -- °F
--% Chance of Precip.
Yesterday
High -- | Low -- °F
Precip. -- in
5:51 AM 8:25 PM
Waning Gibbous, 70% visible
Pressure 29.85 in
Visibility 15.0 miles
Clouds Few 3000 ft
Dew Point 57 °F
Humidity 100%
Rainfall 0.00 in
Snow Depth Not available.
UV 0 out of 12
Pollen Not available.
Air Quality Not available.
Flu Activity Not available.
METAR CYOW 050700Z 21004KT 15SM FEW030 14/14 A2985 RMK SC1 SC TR SLP107 DENSITY ALT 400FT

More Conditions Fewer Conditions

Pressure 29.85 in
Visibility 15.0 miles
Clouds Few 3000 ft
Dew Point 57 °F
Humidity 100%
Rainfall 0.00 in
Snow Depth Not available.
UV 0 out of 12
Pollen Not available.
Air Quality Not available.
Flu Activity Not available.
METAR CYOW 050700Z 21004KT 15SM FEW030 14/14 A2985 RMK SC1 SC TR SLP107 DENSITY ALT 400FT

More Conditions Fewer Conditions

10-Day Weather Forecast

×

Almanac

Astronomy

Aug. 05, 2015 Rise Set
Actual Time
Civil Twilight
Nautical Twilight
Astronomical Twilight
Moon
Length of Visible Light
Length of Day
Tomorrow will be .
, % of the Moon is Illuminated

Today's Extremes

Country Highs Country Lows

Community

WunderPhotos

Upload Photos

1,844,105 photos uploaded!

WunderBlogs® & News

Nearby

Air Quality

  Air Quality AQ Index Pollutant
Not available.

Snow Depth

Station Depth Elevation

Earthquake Activity

City Distance Mag. Time & Date
Minimum magnitude displayed is 2.5.

Coastal Water Temperatures

Place Temperature

Stations

Nearby Weather Stations

Station Location Temp. Windchill Dew Point Humidity Wind Precip. Elev Updated Type